Terminal Aerodrome Forecast
Issued by NWS Louisville, KY

Home | Current Version | Previous Version | Text Only | Print | Product List | Glossary On
Versions: 1 2 3 4 5 6 7 8 9 10 11 12 13 14 15 16 17
070
FTUS43 KLMK 090915 AAA
TAFBWG
TAF AMD
KBWG 090915Z 0909/1006 33005KT 6SM -SHSN FEW016 BKN035
      TEMPO 0909/0912 3SM -SHSN BKN025
     FM091500 28008KT P6SM VCSH OVC024
     FM092000 29008G18KT 5SM -SHSN OVC025=

USA.gov is the U.S. government's official web portal to all federal, state and local government web resources and services.